sensor_id;sensor_type;location;lat;lon;timestamp;P1;durP1;ratioP1;P2;durP2;ratioP2
3355;SDS011;1691;52.486;13.374;2023-02-20T00:00:59;3.80;;;3.50;;
3355;SDS011;1691;52.486;13.374;2023-02-20T00:03:27;4.27;;;3.00;;
3355;SDS011;1691;52.486;13.374;2023-02-20T00:05:54;14.00;;;3.77;;
3355;SDS011;1691;52.486;13.374;2023-02-20T00:08:21;6.30;;;3.23;;
3355;SDS011;1691;52.486;13.374;2023-02-20T00:10:48;3.90;;;3.30;;
3355;SDS011;1691;52.486;13.374;2023-02-20T00:13:15;8.67;;;3.63;;
3355;SDS011;1691;52.486;13.374;2023-02-20T00:15:42;3.33;;;3.13;;
3355;SDS011;1691;52.486;13.374;2023-02-20T00:18:09;3.70;;;3.50;;
3355;SDS011;1691;52.486;13.374;2023-02-20T00:20:37;4.63;;;4.10;;
3355;SDS011;1691;52.486;13.374;2023-02-20T00:23:04;4.37;;;3.97;;
3355;SDS011;1691;52.486;13.374;2023-02-20T00:25:31;5.23;;;3.10;;
3355;SDS011;1691;52.486;13.374;2023-02-20T00:27:58;11.93;;;3.87;;
3355;SDS011;1691;52.486;13.374;2023-02-20T00:30:25;7.90;;;3.33;;
3355;SDS011;1691;52.486;13.374;2023-02-20T00:32:53;7.83;;;4.30;;
3355;SDS011;1691;52.486;13.374;2023-02-20T00:35:21;6.37;;;3.67;;
3355;SDS011;1691;52.486;13.374;2023-02-20T00:37:50;3.57;;;3.30;;
3355;SDS011;1691;52.486;13.374;2023-02-20T00:40:19;3.13;;;2.97;;
3355;SDS011;1691;52.486;13.374;2023-02-20T00:42:48;3.73;;;3.47;;
3355;SDS011;1691;52.486;13.374;2023-02-20T00:45:16;3.80;;;3.50;;
3355;SDS011;1691;52.486;13.374;2023-02-20T00:47:44;5.53;;;4.10;;
3355;SDS011;1691;52.486;13.374;2023-02-20T00:50:12;4.27;;;3.80;;
3355;SDS011;1691;52.486;13.374;2023-02-20T00:52:40;8.30;;;4.07;;
3355;SDS011;1691;52.486;13.374;2023-02-20T00:55:07;4.13;;;3.83;;
3355;SDS011;1691;52.486;13.374;2023-02-20T00:57:35;4.57;;;4.17;;
3355;SDS011;1691;52.486;13.374;2023-02-20T01:00:03;4.23;;;4.00;;
3355;SDS011;1691;52.486;13.374;2023-02-20T01:02:32;3.90;;;3.67;;
3355;SDS011;1691;52.486;13.374;2023-02-20T01:04:59;12.03;;;4.27;;
3355;SDS011;1691;52.486;13.374;2023-02-20T01:07:27;10.53;;;4.87;;
3355;SDS011;1691;52.486;13.374;2023-02-20T01:09:54;4.60;;;4.30;;
3355;SDS011;1691;52.486;13.374;2023-02-20T01:12:21;8.00;;;4.90;;
3355;SDS011;1691;52.486;13.374;2023-02-20T01:14:48;14.63;;;4.30;;
3355;SDS011;1691;52.486;13.374;2023-02-20T01:17:14;9.03;;;4.30;;
3355;SDS011;1691;52.486;13.374;2023-02-20T01:19:42;9.17;;;3.37;;
3355;SDS011;1691;52.486;13.374;2023-02-20T01:22:09;4.40;;;4.10;;
3355;SDS011;1691;52.486;13.374;2023-02-20T01:24:37;4.37;;;3.90;;
3355;SDS011;1691;52.486;13.374;2023-02-20T01:27:04;9.33;;;4.73;;
3355;SDS011;1691;52.486;13.374;2023-02-20T01:29:31;4.57;;;4.33;;
3355;SDS011;1691;52.486;13.374;2023-02-20T01:31:58;5.63;;;4.13;;
3355;SDS011;1691;52.486;13.374;2023-02-20T01:34:25;4.37;;;3.80;;
3355;SDS011;1691;52.486;13.374;2023-02-20T01:36:53;4.80;;;4.33;;
3355;SDS011;1691;52.486;13.374;2023-02-20T01:39:25;4.40;;;4.10;;
3355;SDS011;1691;52.486;13.374;2023-02-20T01:41:54;4.10;;;3.90;;
3355;SDS011;1691;52.486;13.374;2023-02-20T01:44:30;11.80;;;4.13;;
3355;SDS011;1691;52.486;13.374;2023-02-20T01:47:04;4.77;;;4.47;;
3355;SDS011;1691;52.486;13.374;2023-02-20T01:52:27;4.50;;;4.10;;
3355;SDS011;1691;52.486;13.374;2023-02-20T01:57:29;3.60;;;3.40;;
3355;SDS011;1691;52.486;13.374;2023-02-20T02:00:03;6.63;;;3.80;;
3355;SDS011;1691;52.486;13.374;2023-02-20T02:02:36;7.20;;;4.80;;
3355;SDS011;1691;52.486;13.374;2023-02-20T02:05:09;4.73;;;4.13;;
3355;SDS011;1691;52.486;13.374;2023-02-20T02:07:38;4.40;;;4.10;;
3355;SDS011;1691;52.486;13.374;2023-02-20T02:10:08;4.80;;;4.30;;
3355;SDS011;1691;52.486;13.374;2023-02-20T02:12:39;6.77;;;3.60;;
3355;SDS011;1691;52.486;13.374;2023-02-20T02:15:15;4.90;;;3.60;;
3355;SDS011;1691;52.486;13.374;2023-02-20T02:20:51;4.80;;;3.60;;
3355;SDS011;1691;52.486;13.374;2023-02-20T02:29:52;4.53;;;4.33;;
3355;SDS011;1691;52.486;13.374;2023-02-20T02:42:28;4.00;;;3.80;;
3355;SDS011;1691;52.486;13.374;2023-02-20T02:45:13;4.30;;;3.97;;
3355;SDS011;1691;52.486;13.374;2023-02-20T02:48:10;4.40;;;3.93;;
3355;SDS011;1691;52.486;13.374;2023-02-20T02:50:47;4.27;;;3.97;;
3355;SDS011;1691;52.486;13.374;2023-02-20T02:53:18;4.60;;;4.23;;
3355;SDS011;1691;52.486;13.374;2023-02-20T02:55:45;4.70;;;4.40;;
3355;SDS011;1691;52.486;13.374;2023-02-20T02:58:12;6.47;;;4.77;;
3355;SDS011;1691;52.486;13.374;2023-02-20T03:03:23;5.90;;;5.40;;
3355;SDS011;1691;52.486;13.374;2023-02-20T03:06:08;4.57;;;4.27;;
3355;SDS011;1691;52.486;13.374;2023-02-20T03:08:52;4.20;;;4.00;;
3355;SDS011;1691;52.486;13.374;2023-02-20T03:11:34;4.10;;;3.80;;
3355;SDS011;1691;52.486;13.374;2023-02-20T03:14:09;5.53;;;4.77;;
3355;SDS011;1691;52.486;13.374;2023-02-20T03:17:02;5.17;;;4.77;;
3355;SDS011;1691;52.486;13.374;2023-02-20T03:19:45;6.40;;;5.80;;
3355;SDS011;1691;52.486;13.374;2023-02-20T03:22:33;5.57;;;5.23;;
3355;SDS011;1691;52.486;13.374;2023-02-20T03:25:24;5.77;;;5.30;;
3355;SDS011;1691;52.486;13.374;2023-02-20T03:28:23;7.17;;;5.10;;
3355;SDS011;1691;52.486;13.374;2023-02-20T03:31:18;5.57;;;5.10;;
3355;SDS011;1691;52.486;13.374;2023-02-20T03:33:58;5.83;;;5.40;;
3355;SDS011;1691;52.486;13.374;2023-02-20T03:37:04;5.23;;;4.90;;
3355;SDS011;1691;52.486;13.374;2023-02-20T03:39:57;4.27;;;4.00;;
3355;SDS011;1691;52.486;13.374;2023-02-20T03:42:48;7.00;;;5.50;;
3355;SDS011;1691;52.486;13.374;2023-02-20T03:45:38;5.80;;;5.40;;
3355;SDS011;1691;52.486;13.374;2023-02-20T03:48:09;7.00;;;5.40;;
3355;SDS011;1691;52.486;13.374;2023-02-20T03:50:43;7.00;;;5.37;;
3355;SDS011;1691;52.486;13.374;2023-02-20T03:53:10;5.53;;;5.13;;
3355;SDS011;1691;52.486;13.374;2023-02-20T03:55:37;5.73;;;5.40;;
3355;SDS011;1691;52.486;13.374;2023-02-20T03:58:05;6.67;;;5.10;;
3355;SDS011;1691;52.486;13.374;2023-02-20T04:00:40;5.53;;;5.20;;
3355;SDS011;1691;52.486;13.374;2023-02-20T04:03:21;5.33;;;4.90;;
3355;SDS011;1691;52.486;13.374;2023-02-20T04:05:52;6.30;;;5.70;;
3355;SDS011;1691;52.486;13.374;2023-02-20T04:08:23;6.43;;;5.70;;
3355;SDS011;1691;52.486;13.374;2023-02-20T04:11:16;6.70;;;6.00;;
3355;SDS011;1691;52.486;13.374;2023-02-20T04:14:06;5.30;;;5.00;;
3355;SDS011;1691;52.486;13.374;2023-02-20T04:16:36;6.57;;;6.13;;
3355;SDS011;1691;52.486;13.374;2023-02-20T04:19:11;6.37;;;5.87;;
3355;SDS011;1691;52.486;13.374;2023-02-20T04:21:46;8.43;;;5.90;;
3355;SDS011;1691;52.486;13.374;2023-02-20T04:24:22;5.57;;;5.10;;
3355;SDS011;1691;52.486;13.374;2023-02-20T04:26:56;8.40;;;6.30;;
3355;SDS011;1691;52.486;13.374;2023-02-20T04:29:24;5.00;;;4.80;;
3355;SDS011;1691;52.486;13.374;2023-02-20T04:31:51;5.93;;;5.43;;
3355;SDS011;1691;52.486;13.374;2023-02-20T04:34:18;6.60;;;5.97;;
3355;SDS011;1691;52.486;13.374;2023-02-20T04:36:45;6.40;;;5.80;;
3355;SDS011;1691;52.486;13.374;2023-02-20T04:39:12;6.60;;;6.00;;
3355;SDS011;1691;52.486;13.374;2023-02-20T04:41:39;6.90;;;6.20;;
3355;SDS011;1691;52.486;13.374;2023-02-20T04:44:06;6.30;;;5.90;;
3355;SDS011;1691;52.486;13.374;2023-02-20T04:46:51;5.60;;;5.20;;
3355;SDS011;1691;52.486;13.374;2023-02-20T04:49:19;6.30;;;5.93;;
3355;SDS011;1691;52.486;13.374;2023-02-20T04:51:46;11.10;;;5.63;;
3355;SDS011;1691;52.486;13.374;2023-02-20T04:54:13;5.73;;;5.33;;
3355;SDS011;1691;52.486;13.374;2023-02-20T04:56:40;6.67;;;6.07;;
3355;SDS011;1691;52.486;13.374;2023-02-20T04:59:07;6.63;;;6.20;;
3355;SDS011;1691;52.486;13.374;2023-02-20T05:01:34;6.00;;;5.60;;
3355;SDS011;1691;52.486;13.374;2023-02-20T05:04:01;5.90;;;5.53;;
3355;SDS011;1691;52.486;13.374;2023-02-20T05:06:28;5.90;;;5.60;;
3355;SDS011;1691;52.486;13.374;2023-02-20T05:08:55;5.30;;;5.03;;
3355;SDS011;1691;52.486;13.374;2023-02-20T05:11:22;6.53;;;5.93;;
3355;SDS011;1691;52.486;13.374;2023-02-20T05:13:49;6.23;;;5.93;;
3355;SDS011;1691;52.486;13.374;2023-02-20T05:16:16;6.80;;;6.20;;
3355;SDS011;1691;52.486;13.374;2023-02-20T05:18:43;6.57;;;6.10;;
3355;SDS011;1691;52.486;13.374;2023-02-20T05:21:13;5.50;;;5.30;;
3355;SDS011;1691;52.486;13.374;2023-02-20T05:23:59;6.00;;;5.60;;
3355;SDS011;1691;52.486;13.374;2023-02-20T05:26:26;6.63;;;6.20;;
3355;SDS011;1691;52.486;13.374;2023-02-20T05:28:53;7.63;;;7.13;;
3355;SDS011;1691;52.486;13.374;2023-02-20T05:31:20;6.33;;;5.83;;
3355;SDS011;1691;52.486;13.374;2023-02-20T05:33:47;11.23;;;8.97;;
3355;SDS011;1691;52.486;13.374;2023-02-20T05:36:15;8.70;;;7.77;;
3355;SDS011;1691;52.486;13.374;2023-02-20T05:38:42;10.03;;;9.00;;
3355;SDS011;1691;52.486;13.374;2023-02-20T05:41:16;12.30;;;10.47;;
3355;SDS011;1691;52.486;13.374;2023-02-20T05:43:44;7.33;;;6.83;;
3355;SDS011;1691;52.486;13.374;2023-02-20T05:46:11;7.00;;;6.13;;
3355;SDS011;1691;52.486;13.374;2023-02-20T05:48:39;7.33;;;6.73;;
3355;SDS011;1691;52.486;13.374;2023-02-20T05:51:06;8.10;;;7.37;;
3355;SDS011;1691;52.486;13.374;2023-02-20T05:53:33;6.90;;;6.30;;
3355;SDS011;1691;52.486;13.374;2023-02-20T05:56:00;7.20;;;6.73;;
3355;SDS011;1691;52.486;13.374;2023-02-20T05:58:28;6.83;;;6.30;;
3355;SDS011;1691;52.486;13.374;2023-02-20T06:00:55;6.33;;;5.93;;
3355;SDS011;1691;52.486;13.374;2023-02-20T06:03:22;6.93;;;6.47;;
3355;SDS011;1691;52.486;13.374;2023-02-20T06:05:49;6.90;;;6.23;;
3355;SDS011;1691;52.486;13.374;2023-02-20T06:08:16;7.87;;;7.37;;
3355;SDS011;1691;52.486;13.374;2023-02-20T06:10:43;7.27;;;6.57;;
3355;SDS011;1691;52.486;13.374;2023-02-20T06:13:10;6.47;;;5.83;;
3355;SDS011;1691;52.486;13.374;2023-02-20T06:15:38;6.80;;;6.40;;
3355;SDS011;1691;52.486;13.374;2023-02-20T06:18:05;6.97;;;6.47;;
3355;SDS011;1691;52.486;13.374;2023-02-20T06:20:32;6.80;;;5.70;;
3355;SDS011;1691;52.486;13.374;2023-02-20T06:22:59;6.97;;;6.47;;
3355;SDS011;1691;52.486;13.374;2023-02-20T06:25:26;7.10;;;6.63;;
3355;SDS011;1691;52.486;13.374;2023-02-20T06:27:53;7.80;;;7.20;;
3355;SDS011;1691;52.486;13.374;2023-02-20T06:30:20;7.73;;;7.13;;
3355;SDS011;1691;52.486;13.374;2023-02-20T06:32:47;8.90;;;7.83;;
3355;SDS011;1691;52.486;13.374;2023-02-20T06:35:14;7.87;;;7.33;;
3355;SDS011;1691;52.486;13.374;2023-02-20T06:37:41;7.33;;;6.80;;
3355;SDS011;1691;52.486;13.374;2023-02-20T06:40:08;9.30;;;8.40;;
3355;SDS011;1691;52.486;13.374;2023-02-20T06:42:36;8.63;;;7.97;;
3355;SDS011;1691;52.486;13.374;2023-02-20T06:45:03;8.80;;;7.63;;
3355;SDS011;1691;52.486;13.374;2023-02-20T06:47:30;8.63;;;8.03;;
3355;SDS011;1691;52.486;13.374;2023-02-20T06:49:57;8.23;;;7.57;;
3355;SDS011;1691;52.486;13.374;2023-02-20T06:52:24;9.73;;;7.30;;
3355;SDS011;1691;52.486;13.374;2023-02-20T06:54:51;9.03;;;8.23;;
3355;SDS011;1691;52.486;13.374;2023-02-20T06:57:19;10.60;;;9.57;;
3355;SDS011;1691;52.486;13.374;2023-02-20T06:59:46;9.37;;;8.67;;
3355;SDS011;1691;52.486;13.374;2023-02-20T07:02:14;20.97;;;12.57;;
3355;SDS011;1691;52.486;13.374;2023-02-20T07:04:46;12.07;;;10.17;;
3355;SDS011;1691;52.486;13.374;2023-02-20T07:07:15;10.37;;;9.27;;
3355;SDS011;1691;52.486;13.374;2023-02-20T07:09:42;14.53;;;10.50;;
3355;SDS011;1691;52.486;13.374;2023-02-20T07:12:09;10.07;;;9.03;;
3355;SDS011;1691;52.486;13.374;2023-02-20T07:14:37;9.93;;;9.13;;
3355;SDS011;1691;52.486;13.374;2023-02-20T07:17:03;11.30;;;9.20;;
3355;SDS011;1691;52.486;13.374;2023-02-20T07:19:30;10.97;;;9.10;;
3355;SDS011;1691;52.486;13.374;2023-02-20T07:21:57;25.63;;;10.40;;
3355;SDS011;1691;52.486;13.374;2023-02-20T07:24:24;12.23;;;9.70;;
3355;SDS011;1691;52.486;13.374;2023-02-20T07:26:51;10.27;;;9.27;;
3355;SDS011;1691;52.486;13.374;2023-02-20T07:29:18;11.37;;;10.03;;
3355;SDS011;1691;52.486;13.374;2023-02-20T07:31:45;9.77;;;8.90;;
3355;SDS011;1691;52.486;13.374;2023-02-20T07:34:12;11.20;;;10.07;;
3355;SDS011;1691;52.486;13.374;2023-02-20T07:36:39;9.73;;;8.73;;
3355;SDS011;1691;52.486;13.374;2023-02-20T07:39:07;9.93;;;8.93;;
3355;SDS011;1691;52.486;13.374;2023-02-20T07:41:36;9.77;;;8.77;;
3355;SDS011;1691;52.486;13.374;2023-02-20T07:44:02;9.40;;;8.70;;
3355;SDS011;1691;52.486;13.374;2023-02-20T07:46:30;10.13;;;9.20;;
3355;SDS011;1691;52.486;13.374;2023-02-20T07:49:02;8.30;;;7.57;;
3355;SDS011;1691;52.486;13.374;2023-02-20T07:51:31;10.47;;;9.27;;
3355;SDS011;1691;52.486;13.374;2023-02-20T07:53:58;9.30;;;8.47;;
3355;SDS011;1691;52.486;13.374;2023-02-20T07:56:25;8.73;;;7.93;;
3355;SDS011;1691;52.486;13.374;2023-02-20T07:58:53;8.30;;;7.50;;
3355;SDS011;1691;52.486;13.374;2023-02-20T08:01:20;8.30;;;7.70;;
3355;SDS011;1691;52.486;13.374;2023-02-20T08:03:47;8.00;;;7.17;;
3355;SDS011;1691;52.486;13.374;2023-02-20T08:06:17;12.70;;;7.73;;
3355;SDS011;1691;52.486;13.374;2023-02-20T08:08:51;7.97;;;7.20;;
3355;SDS011;1691;52.486;13.374;2023-02-20T08:11:18;7.40;;;6.90;;
3355;SDS011;1691;52.486;13.374;2023-02-20T08:13:47;8.20;;;7.43;;
3355;SDS011;1691;52.486;13.374;2023-02-20T08:16:14;7.23;;;6.63;;
3355;SDS011;1691;52.486;13.374;2023-02-20T08:18:42;8.40;;;7.70;;
3355;SDS011;1691;52.486;13.374;2023-02-20T08:21:09;19.97;;;14.33;;
3355;SDS011;1691;52.486;13.374;2023-02-20T08:23:36;7.40;;;6.90;;
3355;SDS011;1691;52.486;13.374;2023-02-20T08:26:03;8.85;;;6.20;;
3355;SDS011;1691;52.486;13.374;2023-02-20T08:28:31;7.75;;;6.50;;
3355;SDS011;1691;52.486;13.374;2023-02-20T08:30:58;8.20;;;7.43;;
3355;SDS011;1691;52.486;13.374;2023-02-20T08:33:26;7.03;;;6.43;;
3355;SDS011;1691;52.486;13.374;2023-02-20T08:35:53;6.90;;;6.27;;
3355;SDS011;1691;52.486;13.374;2023-02-20T08:38:22;7.27;;;6.33;;
3355;SDS011;1691;52.486;13.374;2023-02-20T08:41:04;6.97;;;6.37;;
3355;SDS011;1691;52.486;13.374;2023-02-20T08:43:34;7.57;;;6.80;;
3355;SDS011;1691;52.486;13.374;2023-02-20T08:46:02;6.40;;;6.07;;
3355;SDS011;1691;52.486;13.374;2023-02-20T08:48:31;6.50;;;6.00;;
3355;SDS011;1691;52.486;13.374;2023-02-20T08:50:59;7.00;;;6.30;;
3355;SDS011;1691;52.486;13.374;2023-02-20T08:53:26;6.63;;;6.03;;
3355;SDS011;1691;52.486;13.374;2023-02-20T08:55:53;6.27;;;5.80;;
3355;SDS011;1691;52.486;13.374;2023-02-20T08:58:21;5.80;;;5.30;;
3355;SDS011;1691;52.486;13.374;2023-02-20T09:00:49;9.90;;;5.90;;
3355;SDS011;1691;52.486;13.374;2023-02-20T09:03:18;7.33;;;5.50;;
3355;SDS011;1691;52.486;13.374;2023-02-20T09:05:45;5.87;;;5.50;;
3355;SDS011;1691;52.486;13.374;2023-02-20T09:08:12;6.30;;;5.90;;
3355;SDS011;1691;52.486;13.374;2023-02-20T09:10:39;6.17;;;5.77;;
3355;SDS011;1691;52.486;13.374;2023-02-20T09:13:06;6.10;;;5.60;;
3355;SDS011;1691;52.486;13.374;2023-02-20T09:15:33;6.20;;;5.80;;
3355;SDS011;1691;52.486;13.374;2023-02-20T09:18:05;5.37;;;4.97;;
3355;SDS011;1691;52.486;13.374;2023-02-20T09:20:37;4.43;;;4.23;;
3355;SDS011;1691;52.486;13.374;2023-02-20T09:23:04;5.63;;;5.10;;
3355;SDS011;1691;52.486;13.374;2023-02-20T09:25:32;4.33;;;4.13;;
3355;SDS011;1691;52.486;13.374;2023-02-20T09:27:59;5.33;;;4.37;;
3355;SDS011;1691;52.486;13.374;2023-02-20T09:30:27;5.20;;;4.80;;
3355;SDS011;1691;52.486;13.374;2023-02-20T09:32:54;4.50;;;4.30;;
3355;SDS011;1691;52.486;13.374;2023-02-20T09:35:25;5.00;;;4.63;;
3355;SDS011;1691;52.486;13.374;2023-02-20T09:37:54;4.73;;;4.43;;
3355;SDS011;1691;52.486;13.374;2023-02-20T09:40:22;4.40;;;4.10;;
3355;SDS011;1691;52.486;13.374;2023-02-20T09:46:05;4.00;;;3.87;;
3355;SDS011;1691;52.486;13.374;2023-02-20T09:48:44;4.60;;;4.20;;
3355;SDS011;1691;52.486;13.374;2023-02-20T09:51:50;7.20;;;3.77;;
3355;SDS011;1691;52.486;13.374;2023-02-20T09:54:35;4.17;;;3.97;;
3355;SDS011;1691;52.486;13.374;2023-02-20T09:57:15;4.47;;;4.23;;
3355;SDS011;1691;52.486;13.374;2023-02-20T09:59:49;4.93;;;4.53;;
3355;SDS011;1691;52.486;13.374;2023-02-20T10:04:58;4.97;;;3.90;;
3355;SDS011;1691;52.486;13.374;2023-02-20T10:07:49;4.20;;;3.80;;
3355;SDS011;1691;52.486;13.374;2023-02-20T10:13:04;3.80;;;3.50;;
3355;SDS011;1691;52.486;13.374;2023-02-20T10:21:19;3.43;;;3.23;;
3355;SDS011;1691;52.486;13.374;2023-02-20T10:27:39;7.93;;;3.87;;
3355;SDS011;1691;52.486;13.374;2023-02-20T10:30:03;5.77;;;3.80;;
3355;SDS011;1691;52.486;13.374;2023-02-20T10:32:54;4.57;;;3.90;;
3355;SDS011;1691;52.486;13.374;2023-02-20T10:35:31;4.57;;;4.27;;
3355;SDS011;1691;52.486;13.374;2023-02-20T10:38:07;9.10;;;3.87;;
3355;SDS011;1691;52.486;13.374;2023-02-20T10:40:40;4.40;;;4.10;;
3355;SDS011;1691;52.486;13.374;2023-02-20T10:45:57;3.43;;;3.23;;
3355;SDS011;1691;52.486;13.374;2023-02-20T10:48:40;5.03;;;4.00;;
3355;SDS011;1691;52.486;13.374;2023-02-20T10:51:12;3.60;;;3.50;;
3355;SDS011;1691;52.486;13.374;2023-02-20T10:59:41;4.87;;;3.50;;
3355;SDS011;1691;52.486;13.374;2023-02-20T11:02:23;5.27;;;4.30;;
3355;SDS011;1691;52.486;13.374;2023-02-20T11:04:54;4.93;;;3.47;;
3355;SDS011;1691;52.486;13.374;2023-02-20T11:07:38;4.27;;;3.93;;
3355;SDS011;1691;52.486;13.374;2023-02-20T11:10:05;4.23;;;3.77;;
3355;SDS011;1691;52.486;13.374;2023-02-20T12:59:23;9.10;;;7.70;;
3355;SDS011;1691;52.486;13.374;2023-02-20T13:02:35;14.17;;;8.10;;
3355;SDS011;1691;52.486;13.374;2023-02-20T13:05:10;11.40;;;8.40;;
3355;SDS011;1691;52.486;13.374;2023-02-20T13:12:52;12.37;;;7.83;;
3355;SDS011;1691;52.486;13.374;2023-02-20T13:18:20;17.40;;;9.90;;
3355;SDS011;1691;52.486;13.374;2023-02-20T13:21:03;9.77;;;8.97;;
3355;SDS011;1691;52.486;13.374;2023-02-20T13:23:36;12.00;;;9.80;;
3355;SDS011;1691;52.486;13.374;2023-02-20T13:28:52;11.17;;;10.07;;
3355;SDS011;1691;52.486;13.374;2023-02-20T13:31:23;11.30;;;9.20;;
3355;SDS011;1691;52.486;13.374;2023-02-20T13:36:44;11.55;;;10.45;;
3355;SDS011;1691;52.486;13.374;2023-02-20T13:46:59;10.97;;;9.90;;
3355;SDS011;1691;52.486;13.374;2023-02-20T13:52:30;17.63;;;10.73;;
3355;SDS011;1691;52.486;13.374;2023-02-20T14:03:18;12.40;;;9.93;;
3355;SDS011;1691;52.486;13.374;2023-02-20T14:06:05;13.83;;;9.50;;
3355;SDS011;1691;52.486;13.374;2023-02-20T14:08:37;10.70;;;9.60;;
3355;SDS011;1691;52.486;13.374;2023-02-20T14:11:14;17.97;;;10.10;;
3355;SDS011;1691;52.486;13.374;2023-02-20T14:13:54;15.13;;;11.30;;
3355;SDS011;1691;52.486;13.374;2023-02-20T14:16:30;16.10;;;10.80;;
3355;SDS011;1691;52.486;13.374;2023-02-20T14:19:15;10.30;;;9.33;;
3355;SDS011;1691;52.486;13.374;2023-02-20T14:21:49;13.40;;;9.67;;
3355;SDS011;1691;52.486;13.374;2023-02-20T14:24:24;14.60;;;10.10;;
3355;SDS011;1691;52.486;13.374;2023-02-20T14:26:54;17.10;;;9.23;;
3355;SDS011;1691;52.486;13.374;2023-02-20T14:31:57;8.87;;;8.00;;
3355;SDS011;1691;52.486;13.374;2023-02-20T14:37:31;14.27;;;10.33;;
3355;SDS011;1691;52.486;13.374;2023-02-20T14:40:38;8.80;;;7.93;;
3355;SDS011;1691;52.486;13.374;2023-02-20T14:43:11;9.07;;;8.20;;
3355;SDS011;1691;52.486;13.374;2023-02-20T14:45:45;9.17;;;7.87;;
3355;SDS011;1691;52.486;13.374;2023-02-20T14:48:25;10.30;;;8.73;;
3355;SDS011;1691;52.486;13.374;2023-02-20T14:51:08;7.43;;;6.83;;
3355;SDS011;1691;52.486;13.374;2023-02-20T14:53:41;8.43;;;7.77;;
3355;SDS011;1691;52.486;13.374;2023-02-20T14:56:16;7.53;;;6.80;;
3355;SDS011;1691;52.486;13.374;2023-02-20T14:58:44;8.70;;;8.17;;
3355;SDS011;1691;52.486;13.374;2023-02-20T15:01:29;7.40;;;6.80;;
3355;SDS011;1691;52.486;13.374;2023-02-20T15:04:06;8.90;;;8.00;;
3355;SDS011;1691;52.486;13.374;2023-02-20T15:06:39;7.80;;;7.13;;
3355;SDS011;1691;52.486;13.374;2023-02-20T15:09:09;8.73;;;7.43;;
3355;SDS011;1691;52.486;13.374;2023-02-20T15:14:23;7.83;;;7.07;;
3355;SDS011;1691;52.486;13.374;2023-02-20T15:19:40;8.10;;;7.40;;
3355;SDS011;1691;52.486;13.374;2023-02-20T15:28:01;7.90;;;7.20;;
3355;SDS011;1691;52.486;13.374;2023-02-20T15:30:32;5.90;;;5.60;;
3355;SDS011;1691;52.486;13.374;2023-02-20T15:33:00;8.43;;;7.60;;
3355;SDS011;1691;52.486;13.374;2023-02-20T15:35:29;8.60;;;7.90;;
3355;SDS011;1691;52.486;13.374;2023-02-20T15:37:59;11.47;;;7.50;;
3355;SDS011;1691;52.486;13.374;2023-02-20T15:40:28;9.33;;;8.37;;
3355;SDS011;1691;52.486;13.374;2023-02-20T15:42:58;7.90;;;7.13;;
3355;SDS011;1691;52.486;13.374;2023-02-20T15:45:33;10.03;;;7.90;;
3355;SDS011;1691;52.486;13.374;2023-02-20T15:48:02;10.13;;;7.57;;
3355;SDS011;1691;52.486;13.374;2023-02-20T15:50:30;8.43;;;7.73;;
3355;SDS011;1691;52.486;13.374;2023-02-20T15:52:57;8.00;;;7.00;;
3355;SDS011;1691;52.486;13.374;2023-02-20T15:55:26;25.17;;;8.40;;
3355;SDS011;1691;52.486;13.374;2023-02-20T15:57:57;7.93;;;7.30;;
3355;SDS011;1691;52.486;13.374;2023-02-20T16:00:27;7.30;;;6.67;;
3355;SDS011;1691;52.486;13.374;2023-02-20T16:02:58;8.30;;;7.63;;
3355;SDS011;1691;52.486;13.374;2023-02-20T16:05:27;9.03;;;8.23;;
3355;SDS011;1691;52.486;13.374;2023-02-20T16:07:54;8.77;;;7.30;;
3355;SDS011;1691;52.486;13.374;2023-02-20T16:10:21;11.20;;;7.90;;
3355;SDS011;1691;52.486;13.374;2023-02-20T16:12:51;7.93;;;7.23;;
3355;SDS011;1691;52.486;13.374;2023-02-20T16:15:21;7.17;;;6.47;;
3355;SDS011;1691;52.486;13.374;2023-02-20T16:17:48;6.80;;;6.40;;
3355;SDS011;1691;52.486;13.374;2023-02-20T16:20:16;9.43;;;7.17;;
3355;SDS011;1691;52.486;13.374;2023-02-20T16:22:49;6.83;;;6.33;;
3355;SDS011;1691;52.486;13.374;2023-02-20T16:25:17;9.10;;;7.47;;
3355;SDS011;1691;52.486;13.374;2023-02-20T16:27:46;8.90;;;8.00;;
3355;SDS011;1691;52.486;13.374;2023-02-20T16:30:20;13.93;;;8.10;;
3355;SDS011;1691;52.486;13.374;2023-02-20T16:32:58;10.10;;;7.63;;
3355;SDS011;1691;52.486;13.374;2023-02-20T16:35:27;8.30;;;6.03;;
3355;SDS011;1691;52.486;13.374;2023-02-20T16:37:54;8.70;;;8.00;;
3355;SDS011;1691;52.486;13.374;2023-02-20T16:40:21;7.77;;;6.23;;
3355;SDS011;1691;52.486;13.374;2023-02-20T16:42:48;9.80;;;7.47;;
3355;SDS011;1691;52.486;13.374;2023-02-20T16:45:16;7.30;;;6.60;;
3355;SDS011;1691;52.486;13.374;2023-02-20T16:47:49;7.17;;;6.47;;
3355;SDS011;1691;52.486;13.374;2023-02-20T16:50:20;7.90;;;7.30;;
3355;SDS011;1691;52.486;13.374;2023-02-20T16:52:57;7.53;;;6.50;;
3355;SDS011;1691;52.486;13.374;2023-02-20T16:55:29;10.60;;;9.47;;
3355;SDS011;1691;52.486;13.374;2023-02-20T16:57:59;9.37;;;8.43;;
3355;SDS011;1691;52.486;13.374;2023-02-20T17:02:56;8.03;;;6.30;;
3355;SDS011;1691;52.486;13.374;2023-02-20T17:05:24;7.33;;;6.60;;
3355;SDS011;1691;52.486;13.374;2023-02-20T17:07:55;7.30;;;6.50;;
3355;SDS011;1691;52.486;13.374;2023-02-20T17:10:23;8.10;;;7.40;;
3355;SDS011;1691;52.486;13.374;2023-02-20T17:12:52;11.13;;;6.63;;
3355;SDS011;1691;52.486;13.374;2023-02-20T17:15:20;8.20;;;7.50;;
3355;SDS011;1691;52.486;13.374;2023-02-20T17:17:50;7.93;;;7.20;;
3355;SDS011;1691;52.486;13.374;2023-02-20T17:20:24;8.87;;;8.07;;
3355;SDS011;1691;52.486;13.374;2023-02-20T17:22:53;8.37;;;7.70;;
3355;SDS011;1691;52.486;13.374;2023-02-20T17:25:30;9.13;;;7.20;;
3355;SDS011;1691;52.486;13.374;2023-02-20T17:27:59;8.93;;;7.60;;
3355;SDS011;1691;52.486;13.374;2023-02-20T17:30:27;9.10;;;8.23;;
3355;SDS011;1691;52.486;13.374;2023-02-20T17:32:54;18.10;;;7.80;;
3355;SDS011;1691;52.486;13.374;2023-02-20T17:35:21;13.90;;;9.67;;
3355;SDS011;1691;52.486;13.374;2023-02-20T17:37:48;7.83;;;7.07;;
3355;SDS011;1691;52.486;13.374;2023-02-20T17:40:15;8.40;;;7.63;;
3355;SDS011;1691;52.486;13.374;2023-02-20T17:42:42;10.73;;;7.40;;
3355;SDS011;1691;52.486;13.374;2023-02-20T17:45:09;6.10;;;5.60;;
3355;SDS011;1691;52.486;13.374;2023-02-20T17:47:37;11.07;;;7.40;;
3355;SDS011;1691;52.486;13.374;2023-02-20T17:50:04;9.60;;;8.00;;
3355;SDS011;1691;52.486;13.374;2023-02-20T17:52:32;11.40;;;8.40;;
3355;SDS011;1691;52.486;13.374;2023-02-20T17:54:59;14.27;;;8.50;;
3355;SDS011;1691;52.486;13.374;2023-02-20T17:57:26;9.60;;;7.30;;
3355;SDS011;1691;52.486;13.374;2023-02-20T17:59:53;9.83;;;8.90;;
3355;SDS011;1691;52.486;13.374;2023-02-20T18:02:20;8.37;;;7.70;;
3355;SDS011;1691;52.486;13.374;2023-02-20T18:04:47;10.40;;;8.03;;
3355;SDS011;1691;52.486;13.374;2023-02-20T18:07:14;8.03;;;7.37;;
3355;SDS011;1691;52.486;13.374;2023-02-20T18:09:42;7.43;;;6.93;;
3355;SDS011;1691;52.486;13.374;2023-02-20T18:12:09;8.33;;;7.63;;
3355;SDS011;1691;52.486;13.374;2023-02-20T18:14:36;35.57;;;20.03;;
3355;SDS011;1691;52.486;13.374;2023-02-20T18:17:03;13.50;;;9.50;;
3355;SDS011;1691;52.486;13.374;2023-02-20T18:19:30;12.23;;;9.30;;
3355;SDS011;1691;52.486;13.374;2023-02-20T18:21:57;12.47;;;8.50;;
3355;SDS011;1691;52.486;13.374;2023-02-20T18:24:25;10.50;;;9.50;;
3355;SDS011;1691;52.486;13.374;2023-02-20T18:26:52;16.17;;;9.50;;
3355;SDS011;1691;52.486;13.374;2023-02-20T18:29:20;10.40;;;9.53;;
3355;SDS011;1691;52.486;13.374;2023-02-20T18:31:48;10.87;;;9.77;;
3355;SDS011;1691;52.486;13.374;2023-02-20T18:34:57;10.00;;;9.00;;
3355;SDS011;1691;52.486;13.374;2023-02-20T18:37:34;24.90;;;10.93;;
3355;SDS011;1691;52.486;13.374;2023-02-20T18:40:07;10.50;;;9.53;;
3355;SDS011;1691;52.486;13.374;2023-02-20T18:42:51;11.50;;;10.50;;
3355;SDS011;1691;52.486;13.374;2023-02-20T18:45:37;11.47;;;10.43;;
3355;SDS011;1691;52.486;13.374;2023-02-20T18:48:08;10.40;;;8.57;;
3355;SDS011;1691;52.486;13.374;2023-02-20T18:50:58;11.20;;;10.10;;
3355;SDS011;1691;52.486;13.374;2023-02-20T18:53:27;10.67;;;9.67;;
3355;SDS011;1691;52.486;13.374;2023-02-20T18:55:55;11.43;;;10.17;;